createdAt,value
2023-03-30T00:00:38.865Z,2.73
2023-03-30T00:03:05.820Z,2.60
2023-03-30T00:05:35.366Z,2.58
2023-03-30T00:08:02.687Z,2.38
2023-03-30T00:10:30.421Z,2.25
2023-03-30T00:12:58.319Z,2.37
2023-03-30T00:15:25.864Z,2.00
2023-03-30T00:17:53.152Z,2.67
2023-03-30T00:20:20.961Z,2.47
2023-03-30T00:22:47.841Z,2.45
2023-03-30T00:25:17.994Z,2.20
2023-03-30T00:27:45.294Z,2.38
2023-03-30T00:30:16.894Z,2.67
2023-03-30T00:32:45.456Z,2.42
2023-03-30T00:35:13.286Z,2.30
2023-03-30T00:37:40.435Z,2.50
2023-03-30T00:40:09.695Z,2.60
2023-03-30T00:42:37.705Z,2.70
2023-03-30T00:45:07.762Z,2.00
2023-03-30T00:47:42.965Z,2.72
2023-03-30T00:50:11.276Z,2.43
2023-03-30T00:52:39.925Z,2.15
2023-03-30T00:55:09.872Z,2.13
2023-03-30T00:57:39.153Z,2.25
2023-03-30T01:00:09.049Z,1.73
2023-03-30T01:02:41.829Z,2.03
2023-03-30T01:05:09.675Z,2.70
2023-03-30T01:07:39.777Z,2.90
2023-03-30T01:10:08.260Z,2.97
2023-03-30T01:12:36.158Z,3.25
2023-03-30T01:15:03.054Z,3.40
2023-03-30T01:17:54.487Z,3.47
2023-03-30T01:21:10.611Z,3.20
2023-03-30T01:24:13.549Z,3.10
2023-03-30T01:26:50.396Z,3.20
2023-03-30T01:29:41.489Z,2.87
2023-03-30T01:32:35.589Z,3.30
2023-03-30T01:35:28.770Z,3.15
2023-03-30T01:38:17.538Z,3.40
2023-03-30T01:40:54.717Z,3.05
2023-03-30T01:43:36.576Z,3.00
2023-03-30T01:46:27.560Z,3.80
2023-03-30T01:49:06.846Z,3.33
2023-03-30T01:51:38.467Z,3.25
2023-03-30T01:54:18.151Z,3.72
2023-03-30T01:57:03.506Z,3.30
2023-03-30T01:59:44.022Z,3.53
2023-03-30T02:02:14.956Z,3.15
2023-03-30T02:04:44.106Z,3.25
2023-03-30T02:07:22.713Z,3.45
2023-03-30T02:09:55.863Z,3.60
2023-03-30T02:12:25.336Z,3.13
2023-03-30T02:14:54.336Z,3.17
2023-03-30T02:17:25.580Z,2.90
2023-03-30T02:19:53.489Z,3.15
2023-03-30T02:22:21.004Z,3.33
2023-03-30T02:24:50.858Z,3.35
2023-03-30T02:27:18.134Z,3.40
2023-03-30T02:29:45.983Z,3.10
2023-03-30T02:32:21.112Z,3.33
2023-03-30T02:35:15.686Z,3.33
2023-03-30T02:38:09.617Z,3.40
2023-03-30T02:40:44.720Z,3.38
2023-03-30T02:43:38.227Z,3.90
2023-03-30T02:46:22.766Z,3.30
2023-03-30T02:49:13.436Z,3.70
2023-03-30T02:51:44.570Z,2.90
2023-03-30T02:54:37.490Z,2.92
2023-03-30T02:57:34.017Z,3.17
2023-03-30T03:00:41.450Z,3.55
2023-03-30T03:03:29.162Z,4.10
2023-03-30T03:05:58.080Z,2.90
2023-03-30T03:08:34.405Z,3.70
2023-03-30T03:11:02.893Z,4.25
2023-03-30T03:13:31.379Z,3.78
2023-03-30T03:16:01.647Z,4.10
2023-03-30T03:18:31.332Z,3.70
2023-03-30T03:21:00.515Z,4.05
2023-03-30T03:23:29.381Z,4.47
2023-03-30T03:25:57.143Z,4.25
2023-03-30T03:31:17.479Z,4.10
2023-03-30T03:33:45.830Z,4.75
2023-03-30T03:36:19.481Z,4.65
2023-03-30T03:38:50.863Z,4.38
2023-03-30T03:41:17.844Z,4.10
2023-03-30T03:43:48.300Z,4.20
2023-03-30T03:46:18.251Z,4.15
2023-03-30T03:48:45.750Z,4.50
2023-03-30T03:51:13.557Z,4.03
2023-03-30T03:53:40.342Z,4.27
2023-03-30T03:56:10.624Z,4.60
2023-03-30T03:58:38.553Z,4.57
2023-03-30T04:01:07.178Z,4.45
2023-03-30T04:03:34.591Z,4.50
2023-03-30T04:06:02.155Z,3.93
2023-03-30T04:08:32.120Z,4.40
2023-03-30T04:11:16.548Z,3.97
2023-03-30T04:14:04.295Z,4.03
2023-03-30T04:16:44.002Z,4.15
2023-03-30T04:19:21.314Z,3.70
2023-03-30T04:21:56.516Z,3.45
2023-03-30T04:24:44.303Z,3.35
2023-03-30T04:27:33.565Z,3.60
2023-03-30T04:30:18.460Z,2.90
2023-03-30T04:33:05.799Z,3.20
2023-03-30T04:35:41.987Z,3.20
2023-03-30T04:38:29.271Z,3.10
2023-03-30T04:41:15.941Z,3.50
2023-03-30T04:44:01.988Z,3.75
2023-03-30T04:46:40.233Z,3.13
2023-03-30T04:49:27.384Z,3.53
2023-03-30T04:51:54.678Z,3.40
2023-03-30T04:54:40.282Z,3.78
2023-03-30T04:57:25.945Z,3.13
2023-03-30T05:00:13.167Z,3.27
2023-03-30T05:03:20.162Z,3.08
2023-03-30T05:06:09.425Z,3.40
2023-03-30T05:08:55.533Z,3.40
2023-03-30T05:11:42.979Z,3.40
2023-03-30T05:14:29.759Z,3.20
2023-03-30T05:17:15.662Z,3.30
2023-03-30T05:20:03.350Z,3.03
2023-03-30T05:22:45.220Z,3.08
2023-03-30T05:25:31.558Z,2.88
2023-03-30T05:28:19.340Z,3.17
2023-03-30T05:31:07.004Z,3.17
2023-03-30T05:33:43.408Z,3.20
2023-03-30T05:36:29.772Z,2.67
2023-03-30T05:39:21.621Z,3.05
2023-03-30T05:42:02.724Z,2.90
2023-03-30T05:44:52.627Z,3.15
2023-03-30T05:47:38.112Z,2.97
2023-03-30T05:50:27.586Z,3.20
2023-03-30T05:53:00.648Z,2.97
2023-03-30T05:55:46.491Z,3.47
2023-03-30T05:58:29.675Z,2.78
2023-03-30T06:01:20.566Z,2.95
2023-03-30T06:03:48.637Z,3.60
2023-03-30T06:06:16.744Z,3.40
2023-03-30T06:08:47.268Z,3.10
2023-03-30T06:11:21.531Z,3.17
2023-03-30T06:14:02.121Z,3.20
2023-03-30T06:16:31.714Z,3.45
2023-03-30T06:18:59.569Z,3.30
2023-03-30T06:21:27.776Z,3.40
2023-03-30T06:24:18.578Z,3.20
2023-03-30T06:26:45.694Z,3.58
2023-03-30T06:29:12.596Z,3.22
2023-03-30T06:31:41.330Z,3.15
2023-03-30T06:34:26.441Z,3.50
2023-03-30T06:36:56.831Z,3.13
2023-03-30T06:39:25.750Z,3.22
2023-03-30T06:41:52.925Z,3.67
2023-03-30T06:44:43.165Z,3.33
2023-03-30T06:47:14.874Z,3.27
2023-03-30T06:49:42.204Z,3.17
2023-03-30T06:52:44.571Z,3.45
2023-03-30T06:55:14.563Z,4.03
2023-03-30T06:57:42.565Z,4.25
2023-03-30T07:00:09.885Z,3.73
2023-03-30T07:02:57.499Z,3.80
2023-03-30T07:05:31.796Z,3.47
2023-03-30T07:08:11.590Z,4.35
2023-03-30T07:10:43.971Z,3.28
2023-03-30T07:13:13.289Z,3.47
2023-03-30T07:15:42.033Z,3.85
2023-03-30T07:18:09.164Z,3.80
2023-03-30T07:20:36.113Z,3.53
2023-03-30T07:23:14.388Z,3.33
2023-03-30T07:25:42.600Z,3.33
2023-03-30T07:28:13.931Z,4.10
2023-03-30T07:30:41.369Z,3.85
2023-03-30T07:33:11.784Z,3.45
2023-03-30T07:36:04.157Z,3.70
2023-03-30T07:38:34.782Z,3.23
2023-03-30T07:41:01.832Z,3.70
2023-03-30T07:43:29.868Z,4.10
2023-03-30T07:45:57.542Z,3.70
2023-03-30T07:48:33.545Z,3.90
2023-03-30T07:51:03.317Z,3.80
2023-03-30T07:53:36.127Z,3.55
2023-03-30T07:56:09.607Z,3.40
2023-03-30T07:58:44.636Z,4.38
2023-03-30T08:01:12.003Z,3.38
2023-03-30T08:03:57.521Z,4.27
2023-03-30T08:06:25.069Z,3.85
2023-03-30T08:08:57.420Z,3.40
2023-03-30T08:11:25.252Z,3.50
2023-03-30T08:13:52.124Z,3.65
2023-03-30T08:16:19.702Z,3.23
2023-03-30T08:18:46.981Z,2.60
2023-03-30T08:21:14.718Z,3.00
2023-03-30T08:23:41.467Z,2.83
2023-03-30T08:26:08.274Z,2.70
2023-03-30T08:28:35.260Z,2.90
2023-03-30T08:31:08.535Z,2.90
2023-03-30T08:33:35.573Z,2.70
2023-03-30T08:36:02.953Z,2.60
2023-03-30T08:38:29.929Z,2.50
2023-03-30T08:40:56.722Z,2.63
2023-03-30T08:43:42.535Z,2.70
2023-03-30T08:46:18.661Z,2.85
2023-03-30T08:48:54.437Z,3.08
2023-03-30T08:51:25.436Z,2.80
2023-03-30T08:53:56.814Z,2.83
2023-03-30T08:56:30.594Z,3.00
2023-03-30T08:59:29.330Z,3.10
2023-03-30T09:02:14.664Z,2.90
2023-03-30T09:05:02.705Z,2.80
2023-03-30T09:07:38.228Z,2.90
2023-03-30T09:10:12.761Z,2.83
2023-03-30T09:12:44.777Z,3.03
2023-03-30T09:15:20.305Z,2.70
2023-03-30T09:17:57.205Z,2.83
2023-03-30T09:20:30.645Z,2.57
2023-03-30T09:23:04.948Z,3.05
2023-03-30T09:25:41.225Z,2.72
2023-03-30T09:28:17.429Z,2.90
2023-03-30T09:30:51.696Z,2.55
2023-03-30T09:33:33.958Z,2.50
2023-03-30T09:36:14.603Z,2.83
2023-03-30T09:38:43.045Z,2.75
2023-03-30T09:41:51.330Z,2.70
2023-03-30T09:44:36.660Z,2.53
2023-03-30T09:47:23.217Z,3.00
2023-03-30T09:50:24.627Z,2.97
2023-03-30T09:53:01.349Z,2.75
2023-03-30T09:55:34.236Z,2.40
2023-03-30T09:58:26.448Z,2.47
2023-03-30T10:01:26.655Z,2.60
2023-03-30T10:04:09.394Z,2.67
2023-03-30T10:06:48.756Z,2.60
2023-03-30T10:09:44.645Z,2.70
2023-03-30T10:12:15.884Z,2.88
2023-03-30T10:14:44.134Z,2.60
2023-03-30T10:17:23.624Z,2.42
2023-03-30T10:20:14.422Z,2.70
2023-03-30T10:22:51.337Z,2.50
2023-03-30T10:25:28.380Z,2.65
2023-03-30T10:28:02.645Z,2.50
2023-03-30T10:30:33.670Z,2.35
2023-03-30T10:33:02.572Z,2.35
2023-03-30T10:35:57.642Z,2.20
2023-03-30T10:38:24.676Z,2.60
2023-03-30T10:41:00.802Z,2.60
2023-03-30T10:43:31.888Z,2.45
2023-03-30T10:46:18.958Z,2.13
2023-03-30T10:49:04.451Z,2.40
2023-03-30T10:52:03.483Z,2.55
2023-03-30T10:54:42.379Z,2.20
2023-03-30T11:00:38.470Z,2.42
2023-03-30T11:03:20.963Z,2.55
2023-03-30T11:05:52.201Z,2.45
2023-03-30T11:08:24.686Z,2.70
2023-03-30T11:13:53.918Z,2.70
2023-03-30T11:16:55.858Z,2.60
2023-03-30T11:19:36.312Z,2.75
2023-03-30T11:22:41.025Z,3.00
2023-03-30T11:25:27.517Z,2.72
2023-03-30T11:28:16.874Z,2.97
2023-03-30T11:30:44.748Z,2.63
2023-03-30T11:33:51.103Z,3.08
2023-03-30T11:37:07.566Z,2.80
2023-03-30T11:39:38.953Z,3.05
2023-03-30T11:42:26.204Z,2.97
2023-03-30T11:44:53.275Z,3.40
2023-03-30T11:47:44.732Z,3.47
2023-03-30T11:50:24.160Z,3.20
2023-03-30T11:52:54.581Z,3.58
2023-03-30T11:55:41.724Z,3.65
2023-03-30T11:58:24.714Z,3.67
2023-03-30T12:00:54.344Z,4.05
2023-03-30T12:03:33.835Z,3.77
2023-03-30T12:06:20.679Z,4.13
2023-03-30T12:09:29.623Z,3.88
2023-03-30T12:12:14.674Z,3.85
2023-03-30T12:14:45.030Z,3.67
2023-03-30T12:17:32.680Z,3.97
2023-03-30T12:20:18.677Z,3.60
2023-03-30T12:23:04.260Z,3.78
2023-03-30T12:26:10.580Z,3.80
2023-03-30T12:29:38.933Z,3.35
2023-03-30T12:31:54.206Z,3.57
2023-03-30T12:34:23.473Z,3.35
2023-03-30T12:37:14.810Z,4.10
2023-03-30T12:39:47.977Z,3.58
2023-03-30T12:42:22.603Z,3.90
2023-03-30T12:45:11.527Z,3.70
2023-03-30T12:47:56.943Z,3.63
2023-03-30T12:50:51.729Z,3.60
2023-03-30T12:56:44.603Z,4.50
2023-03-30T12:59:44.430Z,3.63
2023-03-30T13:02:53.671Z,4.30
2023-03-30T13:05:28.989Z,4.10
2023-03-30T13:07:57.076Z,3.70
2023-03-30T13:10:29.989Z,3.90
2023-03-30T13:12:59.629Z,3.77
2023-03-30T13:15:34.028Z,4.50
2023-03-30T13:18:04.854Z,3.83
2023-03-30T13:20:55.253Z,4.53
2023-03-30T13:23:22.590Z,4.28
2023-03-30T13:26:03.539Z,4.70
2023-03-30T13:28:47.594Z,4.53
2023-03-30T13:31:42.109Z,4.90
2023-03-30T13:34:31.647Z,4.90
2023-03-30T13:37:32.541Z,4.45
2023-03-30T13:40:10.026Z,4.67
2023-03-30T13:43:04.610Z,4.38
2023-03-30T13:45:39.010Z,3.95
2023-03-30T13:48:24.608Z,4.78
2023-03-30T13:50:56.717Z,4.00
2023-03-30T13:53:28.672Z,3.70
2023-03-30T13:55:56.540Z,4.25
2023-03-30T13:58:33.157Z,4.47
2023-03-30T14:01:10.621Z,4.13
2023-03-30T14:03:41.070Z,4.18
2023-03-30T14:06:20.732Z,4.23
2023-03-30T14:09:18.768Z,4.57
2023-03-30T14:11:51.198Z,4.45
2023-03-30T14:14:24.561Z,4.05
2023-03-30T14:16:52.054Z,4.80
2023-03-30T14:19:26.368Z,4.10
2023-03-30T14:22:10.225Z,4.15
2023-03-30T14:24:37.195Z,4.05
2023-03-30T14:27:14.812Z,4.22
2023-03-30T14:29:46.922Z,3.92
2023-03-30T14:32:17.705Z,4.17
2023-03-30T14:34:51.534Z,4.20
2023-03-30T14:37:21.758Z,4.22
2023-03-30T14:39:57.991Z,4.07
2023-03-30T14:42:32.596Z,4.70
2023-03-30T14:45:00.533Z,4.23
2023-03-30T14:47:28.673Z,4.60
2023-03-30T14:50:01.857Z,4.10
2023-03-30T14:52:38.153Z,4.50
2023-03-30T14:55:10.529Z,4.07
2023-03-30T14:57:43.877Z,4.63
2023-03-30T15:00:19.939Z,4.10
2023-03-30T15:02:56.414Z,4.38
2023-03-30T15:05:29.068Z,4.22
2023-03-30T15:07:56.734Z,4.22
2023-03-30T15:10:32.692Z,4.00
2023-03-30T15:13:08.246Z,4.20
2023-03-30T15:15:36.324Z,4.95
2023-03-30T15:18:04.623Z,4.60
2023-03-30T15:20:32.449Z,3.85
2023-03-30T15:23:00.392Z,4.70
2023-03-30T15:25:35.405Z,4.55
2023-03-30T15:28:11.953Z,4.35
2023-03-30T15:30:40.296Z,3.78
2023-03-30T15:33:21.608Z,5.22
2023-03-30T15:35:52.990Z,4.60
2023-03-30T15:38:30.597Z,4.93
2023-03-30T15:40:58.062Z,4.80
2023-03-30T15:43:26.404Z,5.10
2023-03-30T15:46:01.382Z,4.70
2023-03-30T15:48:35.609Z,5.17
2023-03-30T15:51:38.893Z,4.78
2023-03-30T15:54:23.060Z,5.22
2023-03-30T15:57:06.900Z,4.85
2023-03-30T15:59:40.632Z,4.72
2023-03-30T16:02:22.932Z,4.83
2023-03-30T16:04:51.785Z,5.35
2023-03-30T16:07:25.695Z,5.57
2023-03-30T16:09:54.940Z,5.32
2023-03-30T16:12:27.802Z,5.05
2023-03-30T16:14:55.937Z,5.03
2023-03-30T16:17:23.170Z,4.97
2023-03-30T16:19:49.927Z,5.47
2023-03-30T16:22:17.051Z,4.05
2023-03-30T16:24:43.957Z,3.13
2023-03-30T16:27:13.712Z,0.93
2023-03-30T16:29:40.514Z,1.00
2023-03-30T16:32:11.302Z,1.17
2023-03-30T16:34:40.984Z,0.77
2023-03-30T16:37:11.283Z,0.55
2023-03-30T16:39:38.053Z,0.63
2023-03-30T16:42:05.941Z,0.60
2023-03-30T16:44:32.904Z,0.70
2023-03-30T16:47:00.030Z,0.32
2023-03-30T16:49:28.801Z,0.90
2023-03-30T16:51:59.092Z,0.57
2023-03-30T16:56:57.199Z,0.40
2023-03-30T16:59:27.229Z,0.50
2023-03-30T17:01:54.208Z,0.65
2023-03-30T17:04:21.732Z,0.50
2023-03-30T17:06:48.931Z,0.80
2023-03-30T17:09:18.659Z,0.40
2023-03-30T17:11:47.632Z,0.20
2023-03-30T17:14:15.426Z,0.50
2023-03-30T17:16:44.640Z,0.50
2023-03-30T17:19:14.176Z,0.25
2023-03-30T17:21:42.605Z,0.30
2023-03-30T17:24:10.317Z,0.43
2023-03-30T17:26:37.453Z,0.50
2023-03-30T17:29:07.098Z,0.20
2023-03-30T17:31:34.465Z,0.22
2023-03-30T17:34:01.872Z,0.30
2023-03-30T17:36:29.426Z,0.50
2023-03-30T17:38:57.884Z,0.55
2023-03-30T17:41:26.973Z,0.63
2023-03-30T17:43:54.483Z,0.35
2023-03-30T17:46:23.564Z,0.30
2023-03-30T17:48:51.186Z,0.30
2023-03-30T17:51:18.327Z,0.28
2023-03-30T17:53:45.616Z,0.40
2023-03-30T17:56:15.332Z,0.60
2023-03-30T17:58:42.948Z,0.32
2023-03-30T18:01:11.128Z,0.20
2023-03-30T18:03:42.075Z,0.10
2023-03-30T18:06:12.606Z,0.13
2023-03-30T18:08:40.767Z,0.32
2023-03-30T18:11:10.121Z,0.20
2023-03-30T18:13:38.574Z,0.30
2023-03-30T18:16:07.061Z,0.40
2023-03-30T18:18:36.646Z,0.40
2023-03-30T18:21:05.391Z,0.17
2023-03-30T18:23:34.946Z,0.20
2023-03-30T18:26:04.146Z,0.10
2023-03-30T18:28:33.845Z,0.17
2023-03-30T18:31:03.515Z,0.10
2023-03-30T18:33:35.508Z,0.10
2023-03-30T18:36:10.984Z,0.10
2023-03-30T18:38:39.235Z,0.10
2023-03-30T18:41:13.383Z,0.10
2023-03-30T18:43:41.301Z,0.20
2023-03-30T18:46:14.627Z,0.00
2023-03-30T18:48:43.949Z,0.20
2023-03-30T18:51:12.769Z,0.00
2023-03-30T18:53:42.041Z,0.00
2023-03-30T18:56:12.492Z,0.20
2023-03-30T18:58:41.903Z,0.10
2023-03-30T19:01:11.636Z,0.13
2023-03-30T19:03:40.170Z,0.10
2023-03-30T19:06:21.077Z,0.43
2023-03-30T19:08:48.600Z,1.23
2023-03-30T19:11:20.731Z,0.20
2023-03-30T19:13:53.156Z,0.10
2023-03-30T19:16:20.895Z,0.10
2023-03-30T19:18:50.084Z,0.00
2023-03-30T19:21:24.064Z,0.10
2023-03-30T19:23:53.021Z,0.08
2023-03-30T19:26:20.672Z,0.20
2023-03-30T19:28:48.797Z,0.10
2023-03-30T19:31:16.929Z,0.20
2023-03-30T19:33:45.014Z,0.10
2023-03-30T19:36:13.636Z,0.10
2023-03-30T19:38:42.325Z,0.03
2023-03-30T19:41:11.126Z,0.25
2023-03-30T19:43:39.045Z,0.10
2023-03-30T19:46:07.213Z,0.10
2023-03-30T19:49:00.159Z,0.20
2023-03-30T19:51:27.811Z,0.17
2023-03-30T19:53:54.878Z,0.03
2023-03-30T19:56:22.182Z,0.10
2023-03-30T19:58:50.181Z,0.10
2023-03-30T20:01:18.009Z,0.10
2023-03-30T20:03:45.957Z,0.10
2023-03-30T20:06:39.277Z,0.30
2023-03-30T20:09:07.209Z,1.30
2023-03-30T20:11:34.421Z,0.30
2023-03-30T20:14:02.611Z,0.40
2023-03-30T20:16:31.803Z,0.30
2023-03-30T20:18:58.969Z,0.25
2023-03-30T20:21:26.895Z,0.20
2023-03-30T20:23:54.024Z,0.20
2023-03-30T20:26:21.222Z,0.30
2023-03-30T20:28:48.629Z,0.20
2023-03-30T20:31:16.352Z,0.20
2023-03-30T20:33:43.921Z,0.20
2023-03-30T20:36:12.187Z,0.10
2023-03-30T20:38:40.234Z,0.17
2023-03-30T20:41:07.847Z,0.22
2023-03-30T20:43:40.593Z,0.20
2023-03-30T20:46:15.420Z,0.20
2023-03-30T20:48:43.365Z,0.13
2023-03-30T20:51:14.506Z,0.20
2023-03-30T20:53:42.240Z,0.30
2023-03-30T20:56:10.794Z,0.20
2023-03-30T20:58:39.384Z,0.20
2023-03-30T21:01:19.134Z,0.10
2023-03-30T21:03:45.927Z,0.38
2023-03-30T21:06:14.863Z,0.30
2023-03-30T21:08:42.177Z,0.50
2023-03-30T21:11:09.269Z,0.30
2023-03-30T21:13:36.239Z,0.10
2023-03-30T21:16:06.975Z,0.65
2023-03-30T21:18:35.170Z,0.30
2023-03-30T21:21:02.612Z,0.30
2023-03-30T21:23:29.433Z,0.20
2023-03-30T21:26:02.182Z,0.20
2023-03-30T21:28:29.443Z,0.20
2023-03-30T21:30:57.216Z,0.10
2023-03-30T21:33:25.855Z,0.10
2023-03-30T21:35:54.265Z,0.20
2023-03-30T21:38:23.025Z,0.20
2023-03-30T21:41:07.656Z,0.40
2023-03-30T21:43:37.063Z,0.20
2023-03-30T21:46:07.218Z,0.13
2023-03-30T21:48:36.587Z,0.10
2023-03-30T21:51:16.766Z,0.30
2023-03-30T21:53:46.330Z,0.32
2023-03-30T21:56:13.230Z,0.10
2023-03-30T21:58:40.568Z,0.20
2023-03-30T22:01:12.309Z,0.20
2023-03-30T22:03:41.578Z,0.20
2023-03-30T22:06:11.196Z,0.20
2023-03-30T22:08:38.099Z,0.20
2023-03-30T22:11:13.876Z,0.10
2023-03-30T22:13:41.123Z,0.15
2023-03-30T22:16:12.553Z,0.20
2023-03-30T22:18:40.265Z,0.17
2023-03-30T22:21:09.354Z,0.10
2023-03-30T22:23:36.274Z,0.00
2023-03-30T22:26:03.326Z,0.10
2023-03-30T22:28:30.503Z,0.10
2023-03-30T22:34:13.321Z,0.10
2023-03-30T22:36:40.454Z,0.00
2023-03-30T22:39:07.136Z,0.00
2023-03-30T22:41:34.056Z,0.00
2023-03-30T22:44:00.771Z,0.00
2023-03-30T22:46:32.979Z,0.00
2023-03-30T22:49:17.557Z,0.00
2023-03-30T22:51:44.419Z,0.00
2023-03-30T22:54:11.211Z,0.00
2023-03-30T22:56:37.997Z,0.00
2023-03-30T22:59:04.743Z,0.00
2023-03-30T23:01:32.017Z,0.10
2023-03-30T23:03:59.361Z,0.00
2023-03-30T23:06:26.824Z,0.00
2023-03-30T23:08:53.625Z,0.00
2023-03-30T23:11:20.452Z,0.00
2023-03-30T23:13:48.477Z,0.00
2023-03-30T23:16:16.216Z,0.00
2023-03-30T23:18:42.989Z,0.00
2023-03-30T23:21:09.832Z,0.00
2023-03-30T23:23:37.295Z,0.00
2023-03-30T23:26:06.363Z,0.00
2023-03-30T23:28:33.246Z,0.00
2023-03-30T23:31:10.667Z,0.00
2023-03-30T23:33:38.085Z,0.00
2023-03-30T23:36:05.604Z,0.00
2023-03-30T23:38:33.219Z,0.00
2023-03-30T23:41:00.622Z,0.10
2023-03-30T23:43:29.661Z,0.40
2023-03-30T23:45:56.597Z,0.00
2023-03-30T23:48:23.413Z,0.00
2023-03-30T23:50:50.298Z,0.00
2023-03-30T23:53:17.257Z,0.00
2023-03-30T23:55:44.086Z,0.00
2023-03-30T23:58:11.289Z,0.00
